createdAt,value
2022-12-04T00:02:28.063Z,36.30
2022-12-04T00:04:58.669Z,36.83
2022-12-04T00:07:30.063Z,35.40
2022-12-04T00:10:00.511Z,36.37
2022-12-04T00:12:31.520Z,35.30
2022-12-04T00:15:24.960Z,36.07
2022-12-04T00:17:34.532Z,36.67
2022-12-04T00:20:06.056Z,36.37
2022-12-04T00:22:36.642Z,36.43
2022-12-04T00:25:09.102Z,35.13
2022-12-04T00:27:41.221Z,35.48
2022-12-04T00:30:12.562Z,33.37
2022-12-04T00:32:43.001Z,35.57
2022-12-04T00:35:15.034Z,35.83
2022-12-04T00:37:47.689Z,35.77
2022-12-04T00:40:18.362Z,35.60
2022-12-04T00:42:49.110Z,34.60
2022-12-04T00:45:19.585Z,36.97
2022-12-04T00:47:53.015Z,36.27
2022-12-04T00:50:23.477Z,36.57
2022-12-04T00:52:54.433Z,36.27
2022-12-04T00:55:27.142Z,36.70
2022-12-04T00:58:00.175Z,35.13
2022-12-04T01:00:31.522Z,37.87
2022-12-04T01:03:02.378Z,34.73
2022-12-04T01:05:36.164Z,35.33
2022-12-04T01:08:07.528Z,36.70
2022-12-04T01:10:43.202Z,36.57
2022-12-04T01:13:13.686Z,35.47
2022-12-04T01:15:44.583Z,37.47
2022-12-04T01:18:15.625Z,33.70
2022-12-04T01:20:54.786Z,37.87
2022-12-04T01:23:26.843Z,36.40
2022-12-04T01:26:00.878Z,35.03
2022-12-04T01:28:32.908Z,35.80
2022-12-04T01:31:09.492Z,36.40
2022-12-04T01:33:41.679Z,37.87
2022-12-04T01:36:15.499Z,37.33
2022-12-04T01:38:47.973Z,37.57
2022-12-04T01:41:21.518Z,38.43
2022-12-04T01:44:15.958Z,39.00
2022-12-04T01:46:50.570Z,37.90
2022-12-04T01:49:34.078Z,40.10
2022-12-04T01:52:16.737Z,38.53
2022-12-04T01:54:53.087Z,38.80
2022-12-04T01:57:26.893Z,39.83
2022-12-04T02:00:05.294Z,38.80
2022-12-04T02:02:40.434Z,39.73
2022-12-04T02:05:14.366Z,38.30
2022-12-04T02:07:47.263Z,39.37
2022-12-04T02:10:24.710Z,40.10
2022-12-04T02:13:06.645Z,39.43
2022-12-04T02:15:43.940Z,40.93
2022-12-04T02:18:26.478Z,41.57
2022-12-04T02:21:14.435Z,40.83
2022-12-04T02:23:50.812Z,40.73
2022-12-04T02:26:33.514Z,41.43
2022-12-04T02:29:18.911Z,40.67
2022-12-04T02:31:55.197Z,40.57
2022-12-04T02:34:35.602Z,40.87
2022-12-04T02:37:20.752Z,38.93
2022-12-04T02:39:54.591Z,41.23
2022-12-04T02:42:35.896Z,40.33
2022-12-04T02:45:09.585Z,41.40
2022-12-04T02:47:42.527Z,40.37
2022-12-04T02:50:19.199Z,40.23
2022-12-04T02:52:59.759Z,41.03
2022-12-04T02:55:35.088Z,40.73
2022-12-04T02:58:17.415Z,40.97
2022-12-04T03:00:50.465Z,42.97
2022-12-04T03:03:23.926Z,42.23
2022-12-04T03:06:09.616Z,41.50
2022-12-04T03:08:48.966Z,42.17
2022-12-04T03:11:19.840Z,42.83
2022-12-04T03:13:56.263Z,43.30
2022-12-04T03:16:33.394Z,41.83
2022-12-04T03:19:15.840Z,41.47
2022-12-04T03:21:49.383Z,41.57
2022-12-04T03:24:31.891Z,42.13
2022-12-04T03:27:17.561Z,39.93
2022-12-04T03:30:03.206Z,41.13
2022-12-04T03:32:56.581Z,41.23
2022-12-04T03:35:48.259Z,41.97
2022-12-04T03:38:36.175Z,38.97
2022-12-04T03:41:27.646Z,38.80
2022-12-04T03:44:07.163Z,40.00
2022-12-04T03:46:46.192Z,39.27
2022-12-04T03:49:35.793Z,39.13
2022-12-04T03:52:13.609Z,39.00
2022-12-04T03:54:47.229Z,39.07
2022-12-04T03:57:21.330Z,40.43
2022-12-04T03:59:58.190Z,38.83
2022-12-04T04:02:31.994Z,37.37
2022-12-04T04:05:03.918Z,38.37
2022-12-04T04:07:40.405Z,38.07
2022-12-04T04:10:15.356Z,38.40
2022-12-04T04:12:51.672Z,38.47
2022-12-04T04:15:39.840Z,39.70
2022-12-04T04:18:29.848Z,37.73
2022-12-04T04:21:21.177Z,36.40
2022-12-04T04:24:11.048Z,37.80
2022-12-04T04:26:44.591Z,38.23
2022-12-04T04:29:15.738Z,37.93
2022-12-04T04:32:04.551Z,38.63
2022-12-04T04:34:46.963Z,37.23
2022-12-04T04:37:55.316Z,37.40
2022-12-04T04:40:34.858Z,39.17
2022-12-04T04:43:12.100Z,38.60
2022-12-04T04:45:48.316Z,36.93
2022-12-04T04:48:24.098Z,37.23
2022-12-04T04:50:55.308Z,38.83
2022-12-04T04:53:28.938Z,38.50
2022-12-04T04:56:01.285Z,38.20
2022-12-04T04:58:31.942Z,39.20
2022-12-04T05:01:08.685Z,37.03
2022-12-04T05:03:40.197Z,36.40
2022-12-04T05:06:11.584Z,36.97
2022-12-04T05:08:42.995Z,39.10
2022-12-04T05:11:16.397Z,36.13
2022-12-04T05:13:46.795Z,36.00
2022-12-04T05:16:17.910Z,39.03
2022-12-04T05:19:06.345Z,37.27
2022-12-04T05:21:37.397Z,36.30
2022-12-04T05:24:10.053Z,36.73
2022-12-04T05:26:41.935Z,36.77
2022-12-04T05:29:12.396Z,36.20
2022-12-04T05:31:42.957Z,37.13
2022-12-04T05:34:13.495Z,35.97
2022-12-04T05:36:43.956Z,35.43
2022-12-04T05:39:15.081Z,37.70
2022-12-04T05:41:45.559Z,37.57
2022-12-04T05:44:16.359Z,38.33
2022-12-04T05:46:48.067Z,36.90
2022-12-04T05:49:18.622Z,37.47
2022-12-04T05:51:51.391Z,36.73
2022-12-04T05:54:23.064Z,35.27
2022-12-04T05:56:53.598Z,37.33
2022-12-04T05:59:26.735Z,38.27
2022-12-04T06:01:57.190Z,36.90
2022-12-04T06:04:28.046Z,35.23
2022-12-04T06:06:58.595Z,36.23
2022-12-04T06:09:29.219Z,34.57
2022-12-04T06:12:00.299Z,36.97
2022-12-04T06:14:36.238Z,36.03
2022-12-04T06:17:04.615Z,36.23
2022-12-04T06:19:35.695Z,36.87
2022-12-04T06:22:06.755Z,36.20
2022-12-04T06:24:37.231Z,36.70
2022-12-04T06:29:40.022Z,36.53
2022-12-04T06:32:10.578Z,35.07
2022-12-04T06:34:41.670Z,35.67
2022-12-04T06:37:12.238Z,34.50
2022-12-04T06:39:46.453Z,35.53
2022-12-04T06:42:17.073Z,36.63
2022-12-04T06:44:50.868Z,36.60
2022-12-04T06:47:21.334Z,35.83
2022-12-04T06:49:53.595Z,35.23
2022-12-04T06:52:24.594Z,35.03
2022-12-04T06:54:55.057Z,35.13
2022-12-04T06:57:27.167Z,34.40
2022-12-04T06:59:57.985Z,34.37
2022-12-04T07:02:29.401Z,35.23
2022-12-04T07:05:00.022Z,35.47
2022-12-04T07:07:31.028Z,35.47
2022-12-04T07:10:02.321Z,35.03
2022-12-04T07:12:33.003Z,35.33
2022-12-04T07:15:03.556Z,36.90
2022-12-04T07:17:37.031Z,34.37
2022-12-04T07:20:13.231Z,35.80
2022-12-04T07:22:43.685Z,35.60
2022-12-04T07:25:14.357Z,35.57
2022-12-04T07:27:45.518Z,36.17
2022-12-04T07:30:17.901Z,36.50
2022-12-04T07:32:48.672Z,36.13
2022-12-04T07:35:19.182Z,34.50
2022-12-04T07:37:49.690Z,35.43
2022-12-04T07:40:20.135Z,35.57
2022-12-04T07:42:51.938Z,35.50
2022-12-04T07:45:25.374Z,35.83
2022-12-04T07:47:55.903Z,35.20
2022-12-04T07:50:26.790Z,34.77
2022-12-04T07:52:57.445Z,35.20
2022-12-04T07:55:28.181Z,33.47
2022-12-04T07:57:58.782Z,35.40
2022-12-04T08:00:30.517Z,35.47
2022-12-04T08:03:01.151Z,36.17
2022-12-04T08:05:33.190Z,34.73
2022-12-04T08:08:03.920Z,35.27
2022-12-04T08:10:34.533Z,36.20
2022-12-04T08:13:04.950Z,36.53
2022-12-04T08:15:36.562Z,35.93
2022-12-04T08:18:10.036Z,35.03
2022-12-04T08:20:41.507Z,34.33
2022-12-04T08:23:12.130Z,35.30
2022-12-04T08:25:44.033Z,36.43
2022-12-04T08:28:15.751Z,32.83
2022-12-04T08:30:46.309Z,35.70
2022-12-04T08:33:19.567Z,37.10
2022-12-04T08:35:50.086Z,36.00
2022-12-04T08:38:21.694Z,37.50
2022-12-04T08:40:52.512Z,35.83
2022-12-04T08:43:24.841Z,35.87
2022-12-04T08:46:01.427Z,36.93
2022-12-04T08:48:33.780Z,36.03
2022-12-04T08:51:05.196Z,35.57
2022-12-04T08:53:36.825Z,37.00
2022-12-04T08:56:09.362Z,35.53
2022-12-04T08:58:40.305Z,35.87
2022-12-04T09:01:20.377Z,35.63
2022-12-04T09:03:50.857Z,34.43
2022-12-04T09:06:22.004Z,34.00
2022-12-04T09:08:55.797Z,35.97
2022-12-04T09:11:30.980Z,35.23
2022-12-04T09:14:03.680Z,32.63
2022-12-04T09:16:36.558Z,35.20
2022-12-04T09:19:07.672Z,34.23
2022-12-04T09:21:38.988Z,33.40
2022-12-04T09:24:09.607Z,36.80
2022-12-04T09:26:40.807Z,36.80
2022-12-04T09:29:12.849Z,34.47
2022-12-04T09:31:44.271Z,33.30
2022-12-04T09:34:15.010Z,34.33
2022-12-04T09:36:46.227Z,32.90
2022-12-04T09:39:18.738Z,34.60
2022-12-04T09:42:03.052Z,32.17
2022-12-04T09:44:42.268Z,33.87
2022-12-04T09:47:24.537Z,35.40
2022-12-04T09:50:01.415Z,32.30
2022-12-04T09:52:55.249Z,32.77
2022-12-04T09:55:38.258Z,33.53
2022-12-04T09:58:17.555Z,33.57
2022-12-04T10:00:54.019Z,32.50
2022-12-04T10:03:27.701Z,31.83
2022-12-04T10:06:18.039Z,32.40
2022-12-04T10:08:51.571Z,32.70
2022-12-04T10:11:32.557Z,33.13
2022-12-04T10:14:32.141Z,34.70
2022-12-04T10:17:42.104Z,33.73
2022-12-04T10:20:31.145Z,33.23
2022-12-04T10:23:14.256Z,35.47
2022-12-04T10:25:48.840Z,31.87
2022-12-04T10:28:31.766Z,32.50
2022-12-04T10:31:05.523Z,32.55
2022-12-04T10:33:51.658Z,32.63
2022-12-04T10:36:25.519Z,32.90
2022-12-04T10:39:05.322Z,32.33
2022-12-04T10:41:57.136Z,33.47
2022-12-04T10:44:30.024Z,31.67
2022-12-04T10:47:06.092Z,33.27
2022-12-04T10:49:38.637Z,33.67
2022-12-04T10:52:13.286Z,33.47
2022-12-04T10:54:52.737Z,33.67
2022-12-04T10:57:23.554Z,33.40
2022-12-04T11:00:00.584Z,34.03
2022-12-04T11:02:35.178Z,31.93
2022-12-04T11:05:13.268Z,33.17
2022-12-04T11:07:51.775Z,34.27
2022-12-04T11:10:34.567Z,33.37
2022-12-04T11:13:14.750Z,32.40
2022-12-04T11:15:48.012Z,32.53
2022-12-04T11:18:24.477Z,33.00
2022-12-04T11:21:01.166Z,33.93
2022-12-04T11:23:34.729Z,32.57
2022-12-04T11:26:06.423Z,32.77
2022-12-04T11:28:43.104Z,31.87
2022-12-04T11:31:20.131Z,32.50
2022-12-04T11:34:10.547Z,32.60
2022-12-04T11:36:44.629Z,31.97
2022-12-04T11:39:18.286Z,30.97
2022-12-04T11:41:52.297Z,30.97
2022-12-04T11:44:32.807Z,31.30
2022-12-04T11:47:06.467Z,32.40
2022-12-04T11:49:42.267Z,31.63
2022-12-04T11:52:25.439Z,31.80
2022-12-04T11:55:04.478Z,30.67
2022-12-04T11:58:05.468Z,31.03
2022-12-04T12:00:40.773Z,31.33
2022-12-04T12:03:20.673Z,31.93
2022-12-04T12:06:03.118Z,31.87
2022-12-04T12:08:51.625Z,29.77
2022-12-04T12:11:31.621Z,33.87
2022-12-04T12:14:15.188Z,31.13
2022-12-04T12:17:15.806Z,31.87
2022-12-04T12:20:07.899Z,31.93
2022-12-04T12:22:49.031Z,31.40
2022-12-04T12:25:31.540Z,33.37
2022-12-04T12:28:48.214Z,32.30
2022-12-04T12:31:41.787Z,30.50
2022-12-04T12:34:22.596Z,29.60
2022-12-04T12:37:00.543Z,28.97
2022-12-04T12:39:30.082Z,30.82
2022-12-04T12:42:05.848Z,30.70
2022-12-04T12:45:01.344Z,31.80
2022-12-04T12:47:36.572Z,30.37
2022-12-04T12:50:19.387Z,28.07
2022-12-04T12:53:01.687Z,30.77
2022-12-04T12:55:37.957Z,32.13
2022-12-04T12:58:35.135Z,29.67
2022-12-04T13:01:20.078Z,31.97
2022-12-04T13:04:25.318Z,30.60
2022-12-04T13:06:59.151Z,31.50
2022-12-04T13:09:36.979Z,30.17
2022-12-04T13:12:13.564Z,31.63
2022-12-04T13:14:48.869Z,29.63
2022-12-04T13:17:22.386Z,32.20
2022-12-04T13:19:59.680Z,30.33
2022-12-04T13:22:56.663Z,30.70
2022-12-04T13:25:31.536Z,31.97
2022-12-04T13:28:17.220Z,30.03
2022-12-04T13:30:53.577Z,30.70
2022-12-04T13:33:47.990Z,34.27
2022-12-04T13:36:30.482Z,32.50
2022-12-04T13:39:23.016Z,30.20
2022-12-04T13:42:02.785Z,30.50
2022-12-04T13:44:39.228Z,32.13
2022-12-04T13:47:12.840Z,31.20
2022-12-04T13:49:45.205Z,31.40
2022-12-04T13:52:27.315Z,32.13
2022-12-04T13:55:00.809Z,32.80
2022-12-04T13:57:33.554Z,31.77
2022-12-04T14:00:09.999Z,32.63
2022-12-04T14:02:44.176Z,31.62
2022-12-04T14:05:17.689Z,32.87
2022-12-04T14:08:07.810Z,33.07
2022-12-04T14:10:40.312Z,31.87
2022-12-04T14:13:16.831Z,33.50
2022-12-04T14:15:48.094Z,31.90
2022-12-04T14:18:24.255Z,34.40
2022-12-04T14:21:06.228Z,33.57
2022-12-04T14:23:42.415Z,33.07
2022-12-04T14:26:56.006Z,32.73
2022-12-04T14:29:09.849Z,32.70
2022-12-04T14:31:41.856Z,33.83
2022-12-04T14:34:16.617Z,33.60
2022-12-04T14:36:49.555Z,33.27
2022-12-04T14:39:35.948Z,34.43
2022-12-04T14:42:36.741Z,33.13
2022-12-04T14:45:22.282Z,32.57
2022-12-04T14:48:14.082Z,32.80
2022-12-04T14:50:54.541Z,32.63
2022-12-04T14:53:51.566Z,33.97
2022-12-04T14:56:27.512Z,33.80
2022-12-04T14:58:59.576Z,33.13
2022-12-04T15:01:38.293Z,33.90
2022-12-04T15:04:15.233Z,34.13
2022-12-04T15:06:53.066Z,33.93
2022-12-04T15:09:42.475Z,33.60
2022-12-04T15:12:34.067Z,35.37
2022-12-04T15:15:18.688Z,34.30
2022-12-04T15:18:01.057Z,33.87
2022-12-04T15:20:39.086Z,35.27
2022-12-04T15:23:09.154Z,35.33
2022-12-04T15:25:48.687Z,36.17
2022-12-04T15:28:29.090Z,35.10
2022-12-04T15:31:02.294Z,33.30
2022-12-04T15:33:39.011Z,34.60
2022-12-04T15:36:38.428Z,34.50
2022-12-04T15:39:18.555Z,34.10
2022-12-04T15:41:54.836Z,34.50
2022-12-04T15:44:33.452Z,33.80
2022-12-04T15:47:09.762Z,35.00
2022-12-04T15:49:40.222Z,35.90
2022-12-04T15:52:20.244Z,37.47
2022-12-04T15:55:10.560Z,36.57
2022-12-04T15:57:43.971Z,35.57
2022-12-04T16:00:25.150Z,35.57
2022-12-04T16:02:57.520Z,37.33
2022-12-04T16:05:33.165Z,35.37
2022-12-04T16:08:28.124Z,37.23
2022-12-04T16:11:05.585Z,35.23
2022-12-04T16:13:40.619Z,37.80
2022-12-04T16:16:17.439Z,36.20
2022-12-04T16:18:48.502Z,36.50
2022-12-04T16:21:22.280Z,35.50
2022-12-04T16:23:53.941Z,36.80
2022-12-04T16:26:24.448Z,36.97
2022-12-04T16:28:55.083Z,37.90
2022-12-04T16:31:28.405Z,37.67
2022-12-04T16:33:59.244Z,36.53
2022-12-04T16:36:30.016Z,37.03
2022-12-04T16:39:00.655Z,39.50
2022-12-04T16:41:32.441Z,37.17
2022-12-04T16:44:06.323Z,37.87
2022-12-04T16:46:37.316Z,39.30
2022-12-04T16:49:13.286Z,39.83
2022-12-04T16:51:49.583Z,39.47
2022-12-04T16:54:21.043Z,38.53
2022-12-04T16:56:52.786Z,39.80
2022-12-04T16:59:26.432Z,37.23
2022-12-04T17:01:58.745Z,39.53
2022-12-04T17:04:32.154Z,39.87
2022-12-04T17:07:02.835Z,39.27
2022-12-04T17:09:33.698Z,39.57
2022-12-04T17:12:04.702Z,38.15
2022-12-04T17:14:35.591Z,38.10
2022-12-04T17:17:06.085Z,40.33
2022-12-04T17:19:38.233Z,40.75
2022-12-04T17:22:14.481Z,39.97
2022-12-04T17:24:51.623Z,41.03
2022-12-04T17:27:18.352Z,40.63
2022-12-04T17:29:50.397Z,39.92
2022-12-04T17:32:21.122Z,39.40
2022-12-04T17:34:54.495Z,40.83
2022-12-04T17:37:25.477Z,39.85
2022-12-04T17:39:58.412Z,39.73
2022-12-04T17:42:29.222Z,39.53
2022-12-04T17:45:02.431Z,44.03
2022-12-04T17:47:39.419Z,42.80
2022-12-04T17:50:10.461Z,43.50
2022-12-04T17:52:41.305Z,40.40
2022-12-04T17:55:12.446Z,42.07
2022-12-04T17:57:44.385Z,40.73
2022-12-04T18:00:15.418Z,41.37
2022-12-04T18:02:53.211Z,42.10
2022-12-04T18:05:23.613Z,41.40
2022-12-04T18:07:55.573Z,46.73
2022-12-04T18:10:26.611Z,45.03
2022-12-04T18:12:59.598Z,41.60
2022-12-04T18:15:32.278Z,41.33
2022-12-04T18:18:04.048Z,41.53
2022-12-04T18:20:34.586Z,42.73
2022-12-04T18:23:06.442Z,42.67
2022-12-04T18:25:37.727Z,42.27
2022-12-04T18:28:10.077Z,42.30
2022-12-04T18:30:44.028Z,42.48
2022-12-04T18:33:19.203Z,41.93
2022-12-04T18:35:56.819Z,45.30
2022-12-04T18:38:32.233Z,41.07
2022-12-04T18:41:05.964Z,42.23
2022-12-04T18:43:41.960Z,41.17
2022-12-04T18:46:16.735Z,40.80
2022-12-04T18:48:52.235Z,40.73
2022-12-04T18:51:32.444Z,40.43
2022-12-04T18:54:15.626Z,39.95
2022-12-04T18:56:49.044Z,41.07
2022-12-04T18:59:26.312Z,39.93
2022-12-04T19:01:59.877Z,41.27
2022-12-04T19:04:34.381Z,39.70
2022-12-04T19:07:07.900Z,41.90
2022-12-04T19:10:10.010Z,40.80
2022-12-04T19:12:10.765Z,40.90
2022-12-04T19:14:44.408Z,41.87
2022-12-04T19:17:15.946Z,40.27
2022-12-04T19:19:46.558Z,41.17
2022-12-04T19:22:18.268Z,42.07
2022-12-04T19:24:49.660Z,41.53
2022-12-04T19:27:21.317Z,43.00
2022-12-04T19:29:51.955Z,39.47
2022-12-04T19:32:22.940Z,41.08
2022-12-04T19:34:53.797Z,41.77
2022-12-04T19:37:24.302Z,40.60
2022-12-04T19:39:55.224Z,39.63
2022-12-04T19:42:26.191Z,40.70
2022-12-04T19:44:56.881Z,37.87
2022-12-04T19:47:27.389Z,40.07
2022-12-04T19:49:58.246Z,39.83
2022-12-04T19:52:29.214Z,40.77
2022-12-04T19:54:59.748Z,38.17
2022-12-04T19:57:31.403Z,39.60
2022-12-04T20:00:02.521Z,40.23
2022-12-04T20:02:35.577Z,37.83
2022-12-04T20:05:07.992Z,41.07
2022-12-04T20:07:40.149Z,41.67
2022-12-04T20:10:12.432Z,39.88
2022-12-04T20:12:45.899Z,38.58
2022-12-04T20:15:16.525Z,38.92
2022-12-04T20:17:47.209Z,39.50
2022-12-04T20:20:22.336Z,40.58
2022-12-04T20:22:54.399Z,39.87
2022-12-04T20:25:25.446Z,39.27
2022-12-04T20:27:57.464Z,40.55
2022-12-04T20:30:29.689Z,40.87
2022-12-04T20:33:00.881Z,40.10
2022-12-04T20:35:33.817Z,39.03
2022-12-04T20:38:07.582Z,39.55
2022-12-04T20:40:38.079Z,40.67
2022-12-04T20:43:08.692Z,40.98
2022-12-04T20:45:40.091Z,39.53
2022-12-04T20:48:13.519Z,36.83
2022-12-04T20:50:50.314Z,39.75
2022-12-04T20:53:23.081Z,38.23
2022-12-04T20:55:57.042Z,38.67
2022-12-04T20:58:30.686Z,37.38
2022-12-04T21:01:11.181Z,38.17
2022-12-04T21:03:43.821Z,37.33
2022-12-04T21:06:23.296Z,37.20
2022-12-04T21:08:57.310Z,36.87
2022-12-04T21:11:32.109Z,38.80
2022-12-04T21:14:25.275Z,36.30
2022-12-04T21:16:56.016Z,45.83
2022-12-04T21:19:28.482Z,42.97
2022-12-04T21:22:00.509Z,38.70
2022-12-04T21:24:32.844Z,38.30
2022-12-04T21:27:04.587Z,38.15
2022-12-04T21:29:37.614Z,36.68
2022-12-04T21:32:11.020Z,37.25
2022-12-04T21:34:41.590Z,35.50
2022-12-04T21:37:12.517Z,37.70
2022-12-04T21:39:45.730Z,37.27
2022-12-04T21:42:31.365Z,34.07
2022-12-04T21:45:04.511Z,37.97
2022-12-04T21:47:37.723Z,37.83
2022-12-04T21:50:10.178Z,36.80
2022-12-04T21:52:42.136Z,37.90
2022-12-04T21:55:13.415Z,36.23
2022-12-04T21:57:45.889Z,36.67
2022-12-04T22:00:16.415Z,36.73
2022-12-04T22:02:46.823Z,36.97
2022-12-04T22:05:17.509Z,37.57
2022-12-04T22:07:49.140Z,38.20
2022-12-04T22:10:19.661Z,37.25
2022-12-04T22:12:51.703Z,36.43
2022-12-04T22:15:22.538Z,36.50
2022-12-04T22:17:54.890Z,36.73
2022-12-04T22:20:25.502Z,36.90
2022-12-04T22:22:56.098Z,38.47
2022-12-04T22:25:26.748Z,38.03
2022-12-04T22:27:58.444Z,36.23
2022-12-04T22:30:29.405Z,37.37
2022-12-04T22:33:02.140Z,37.07
2022-12-04T22:35:34.392Z,35.87
2022-12-04T22:38:04.944Z,36.73
2022-12-04T22:40:35.423Z,37.93
2022-12-04T22:43:05.922Z,37.10
2022-12-04T22:45:36.365Z,38.65
2022-12-04T22:48:07.367Z,37.23
2022-12-04T22:50:37.922Z,37.13
2022-12-04T22:53:09.654Z,36.23
2022-12-04T22:55:40.069Z,37.50
2022-12-04T22:58:10.459Z,40.90
2022-12-04T23:00:41.003Z,38.23
2022-12-04T23:03:11.661Z,37.10
2022-12-04T23:05:42.281Z,36.23
2022-12-04T23:08:12.876Z,36.47
2022-12-04T23:10:43.360Z,37.30
2022-12-04T23:13:13.947Z,37.23
2022-12-04T23:15:44.780Z,38.60
2022-12-04T23:18:15.871Z,37.63
2022-12-04T23:20:46.555Z,37.80
2022-12-04T23:23:17.129Z,36.93
2022-12-04T23:25:48.920Z,38.87
2022-12-04T23:28:19.363Z,39.47
2022-12-04T23:30:51.539Z,38.25
2022-12-04T23:33:23.316Z,38.97
2022-12-04T23:35:56.351Z,40.23
2022-12-04T23:38:28.595Z,36.13
2022-12-04T23:41:03.641Z,38.17
2022-12-04T23:43:34.742Z,38.20
2022-12-04T23:46:10.638Z,40.10
2022-12-04T23:48:38.328Z,38.73
2022-12-04T23:51:11.211Z,37.43
2022-12-04T23:53:42.560Z,38.90
2022-12-04T23:56:16.114Z,39.57
2022-12-04T23:58:48.621Z,38.73
